sensor_id;sensor_type;location;lat;lon;timestamp;temperature;humidity
35445;DHT22;21562;49.476;6.086;2023-06-22T00:00:53;23.30;99.90
35445;DHT22;21562;49.476;6.086;2023-06-22T00:03:21;23.40;99.90
35445;DHT22;21562;49.476;6.086;2023-06-22T00:05:48;23.60;99.90
35445;DHT22;21562;49.476;6.086;2023-06-22T00:08:13;23.90;99.90
35445;DHT22;21562;49.476;6.086;2023-06-22T00:10:39;24.10;99.90
35445;DHT22;21562;49.476;6.086;2023-06-22T00:13:06;24.40;99.90
35445;DHT22;21562;49.476;6.086;2023-06-22T00:15:32;24.50;99.90
35445;DHT22;21562;49.476;6.086;2023-06-22T00:17:57;24.20;99.90
35445;DHT22;21562;49.476;6.086;2023-06-22T00:20:24;23.50;99.90
35445;DHT22;21562;49.476;6.086;2023-06-22T00:22:57;23.00;99.90
35445;DHT22;21562;49.476;6.086;2023-06-22T00:25:22;22.60;99.90
35445;DHT22;21562;49.476;6.086;2023-06-22T00:27:49;22.50;99.90
35445;DHT22;21562;49.476;6.086;2023-06-22T00:30:18;22.50;99.90
35445;DHT22;21562;49.476;6.086;2023-06-22T00:32:45;22.80;99.90
35445;DHT22;21562;49.476;6.086;2023-06-22T00:35:12;23.10;99.90
35445;DHT22;21562;49.476;6.086;2023-06-22T00:37:39;23.40;99.90
35445;DHT22;21562;49.476;6.086;2023-06-22T00:40:08;22.60;99.90
35445;DHT22;21562;49.476;6.086;2023-06-22T00:42:36;22.40;99.90
35445;DHT22;21562;49.476;6.086;2023-06-22T00:45:02;22.70;99.90
35445;DHT22;21562;49.476;6.086;2023-06-22T00:47:28;23.00;99.90
35445;DHT22;21562;49.476;6.086;2023-06-22T00:49:54;22.90;99.90
35445;DHT22;21562;49.476;6.086;2023-06-22T00:52:21;22.60;99.90
35445;DHT22;21562;49.476;6.086;2023-06-22T00:54:51;22.60;99.90
35445;DHT22;21562;49.476;6.086;2023-06-22T00:57:19;22.10;99.90
35445;DHT22;21562;49.476;6.086;2023-06-22T00:59:46;21.90;99.90
35445;DHT22;21562;49.476;6.086;2023-06-22T01:02:13;22.20;99.90
35445;DHT22;21562;49.476;6.086;2023-06-22T01:04:39;22.40;99.90
35445;DHT22;21562;49.476;6.086;2023-06-22T01:07:31;22.70;99.90
35445;DHT22;21562;49.476;6.086;2023-06-22T01:12:31;22.70;99.90
35445;DHT22;21562;49.476;6.086;2023-06-22T01:15:09;22.90;99.90
35445;DHT22;21562;49.476;6.086;2023-06-22T01:17:36;23.00;99.90
35445;DHT22;21562;49.476;6.086;2023-06-22T01:20:06;23.40;99.90
35445;DHT22;21562;49.476;6.086;2023-06-22T01:22:55;23.70;99.90
35445;DHT22;21562;49.476;6.086;2023-06-22T01:25:48;23.80;99.90
35445;DHT22;21562;49.476;6.086;2023-06-22T01:31:02;23.80;99.90
35445;DHT22;21562;49.476;6.086;2023-06-22T01:33:37;23.70;99.90
35445;DHT22;21562;49.476;6.086;2023-06-22T01:36:03;23.70;99.90
35445;DHT22;21562;49.476;6.086;2023-06-22T01:38:30;23.80;99.90
35445;DHT22;21562;49.476;6.086;2023-06-22T01:41:00;23.90;99.90
35445;DHT22;21562;49.476;6.086;2023-06-22T01:43:27;23.90;99.90
35445;DHT22;21562;49.476;6.086;2023-06-22T01:45:55;23.90;99.90
35445;DHT22;21562;49.476;6.086;2023-06-22T01:48:22;24.00;99.90
35445;DHT22;21562;49.476;6.086;2023-06-22T01:50:48;24.10;99.90
35445;DHT22;21562;49.476;6.086;2023-06-22T01:53:14;24.10;99.90
35445;DHT22;21562;49.476;6.086;2023-06-22T01:55:40;24.00;99.90
35445;DHT22;21562;49.476;6.086;2023-06-22T01:58:05;24.00;99.90
35445;DHT22;21562;49.476;6.086;2023-06-22T02:00:37;24.00;99.90
35445;DHT22;21562;49.476;6.086;2023-06-22T02:03:19;23.90;99.90
35445;DHT22;21562;49.476;6.086;2023-06-22T02:05:50;23.90;99.90
35445;DHT22;21562;49.476;6.086;2023-06-22T02:08:26;24.00;99.90
35445;DHT22;21562;49.476;6.086;2023-06-22T02:10:54;24.00;99.90
35445;DHT22;21562;49.476;6.086;2023-06-22T02:13:23;23.90;99.90
35445;DHT22;21562;49.476;6.086;2023-06-22T02:15:49;24.00;99.90
35445;DHT22;21562;49.476;6.086;2023-06-22T02:18:15;24.10;99.90
35445;DHT22;21562;49.476;6.086;2023-06-22T02:20:41;24.00;99.90
35445;DHT22;21562;49.476;6.086;2023-06-22T02:23:07;23.80;99.90
35445;DHT22;21562;49.476;6.086;2023-06-22T02:25:34;23.80;99.90
35445;DHT22;21562;49.476;6.086;2023-06-22T02:28:00;23.80;99.90
35445;DHT22;21562;49.476;6.086;2023-06-22T02:30:25;23.90;99.90
35445;DHT22;21562;49.476;6.086;2023-06-22T02:32:51;23.80;99.90
35445;DHT22;21562;49.476;6.086;2023-06-22T02:35:27;23.90;99.90
35445;DHT22;21562;49.476;6.086;2023-06-22T02:38:00;24.00;99.90
35445;DHT22;21562;49.476;6.086;2023-06-22T02:40:26;24.00;99.90
35445;DHT22;21562;49.476;6.086;2023-06-22T02:42:52;24.00;99.90
35445;DHT22;21562;49.476;6.086;2023-06-22T02:45:18;23.70;99.90
35445;DHT22;21562;49.476;6.086;2023-06-22T02:47:44;23.70;99.90
35445;DHT22;21562;49.476;6.086;2023-06-22T02:50:09;23.70;99.90
35445;DHT22;21562;49.476;6.086;2023-06-22T02:52:35;23.70;99.90
35445;DHT22;21562;49.476;6.086;2023-06-22T02:55:01;23.80;99.90
35445;DHT22;21562;49.476;6.086;2023-06-22T02:57:27;23.80;99.90
35445;DHT22;21562;49.476;6.086;2023-06-22T02:59:52;23.90;99.90
35445;DHT22;21562;49.476;6.086;2023-06-22T03:02:18;24.00;99.90
35445;DHT22;21562;49.476;6.086;2023-06-22T03:04:46;24.00;99.90
35445;DHT22;21562;49.476;6.086;2023-06-22T03:07:15;24.00;99.90
35445;DHT22;21562;49.476;6.086;2023-06-22T03:09:40;24.10;99.90
35445;DHT22;21562;49.476;6.086;2023-06-22T03:12:07;24.00;99.90
35445;DHT22;21562;49.476;6.086;2023-06-22T03:14:33;24.00;99.90
35445;DHT22;21562;49.476;6.086;2023-06-22T03:16:59;24.00;99.90
35445;DHT22;21562;49.476;6.086;2023-06-22T03:19:29;24.00;99.90
35445;DHT22;21562;49.476;6.086;2023-06-22T03:21:59;23.90;99.90
35445;DHT22;21562;49.476;6.086;2023-06-22T03:24:25;24.00;99.90
35445;DHT22;21562;49.476;6.086;2023-06-22T03:26:54;23.90;99.90
35445;DHT22;21562;49.476;6.086;2023-06-22T03:29:20;23.80;99.90
35445;DHT22;21562;49.476;6.086;2023-06-22T03:31:45;23.90;99.90
35445;DHT22;21562;49.476;6.086;2023-06-22T03:34:11;23.90;99.90
35445;DHT22;21562;49.476;6.086;2023-06-22T03:36:37;23.90;99.90
35445;DHT22;21562;49.476;6.086;2023-06-22T03:39:02;23.80;99.90
35445;DHT22;21562;49.476;6.086;2023-06-22T03:41:28;23.80;99.90
35445;DHT22;21562;49.476;6.086;2023-06-22T03:43:54;23.80;99.90
35445;DHT22;21562;49.476;6.086;2023-06-22T03:46:19;23.80;99.90
35445;DHT22;21562;49.476;6.086;2023-06-22T03:48:45;23.80;99.90
35445;DHT22;21562;49.476;6.086;2023-06-22T03:51:11;23.70;99.90
35445;DHT22;21562;49.476;6.086;2023-06-22T03:53:36;23.70;99.90
35445;DHT22;21562;49.476;6.086;2023-06-22T03:56:02;23.80;99.90
35445;DHT22;21562;49.476;6.086;2023-06-22T03:58:28;23.80;99.90
35445;DHT22;21562;49.476;6.086;2023-06-22T04:00:58;23.80;99.90
